NCAR-RAP Real-Time Weather Data

Output produced by METARs form (23 June 2018  19:30 UTC)
found at http://weather.rap.ucar.edu/surface/
 
RJCC 231900Z 14010KT 9999 FEW030 BKN120 BKN/// 16/12 Q0997 RMK 1CU030 6AC120 A2946
RJCC 231830Z 13008KT 9999 FEW030 BKN120 BKN/// 16/12 Q0997
RJCC 231800Z 13005KT 9999 FEW030 BKN140 BKN/// 15/13 Q0997
RJCC 231730Z 13008KT 9999 FEW030 BKN120 BKN/// 15/13 Q0997
RJCC 231700Z 16005KT 9999 FEW030 BKN100 BKN/// 15/13 Q0997
RJCC 231630Z 15004KT 9999 FEW030 SCT100 BKN/// 15/13 Q0998
RJCC 231600Z 12005KT 060V160 9999 FEW030 BKN100 BKN/// 16/13 Q0997
RJCC 231530Z 14011KT 9999 FEW030 BKN100 16/13 Q0997 RMK 1CU030 7AC100 A2947
RJCC 231500Z 13013KT 9999 FEW030 BKN110 16/13 Q0998 RMK 1CU030 7AC110 A2947
RJCC 231430Z 16008KT 9999 -SHRA FEW030 SCT060 BKN120 16/13 Q0998 RMK 1CU030 3CU060 7AC120 A2948
RJCC 231400Z 15012KT 9999 FEW030 BKN120 16/12 Q0999 RMK 1CU030 7AC120 A2950
RJCC 231330Z 16013KT 9999 FEW030 BKN120 16/12 Q0999 RMK 1CU030 7AC120 A2952
RJCC 231300Z 15012KT 9999 FEW030 BKN100 17/12 Q0999 RMK 1CU030 7AC100 A2952
RJCC 231230Z 16006KT 9999 FEW030 BKN100 16/12 Q1000 RMK 1CU030 7AC100 A2953
RJCC 231200Z 17007KT 9999 -SHRA FEW030 SCT060 BKN100 17/12 Q1000 RMK 1CU030 3CU060 7AC100 A2954
RJCC 231130Z 14004KT 9999 -SHRA FEW030 SCT060 BKN100 17/12 Q1000 RMK 1CU030 3CU060 7AC100 A2954
RJCC 231100Z 16007KT 9999 -SHRA FEW040 SCT060 BKN100 17/12 Q0999 RMK 1CU040 3CU060 7AC100 A2953
RJCC 231030Z 15010KT 9999 FEW050 BKN110 17/12 Q0999 RMK 1CU050 7AC110 A2951
RJCC 231000Z 16014KT 9999 FEW050 BKN130 17/12 Q0999 RMK 1CU050 7AC130 A2951
RJCC 230930Z 15013KT 9999 FEW050 BKN140 BKN/// 18/12 Q0999
RJCC 230900Z 16014KT 9999 FEW050 SCT100 BKN140 18/13 Q0999 RMK 1CU050 3AC100 6AC140 A2951
RJCC 230830Z 16013KT 9999 FEW050 SCT100 BKN150 18/13 Q0999 RMK 1CU050 4AC100 6AC150 A2950
RJCC 230800Z 16016KT 9999 FEW030 SCT100 BKN150 18/13 Q0998 RMK 1CU030 3AC100 6AC150 A2949
RJCC 230730Z 15015KT 9999 FEW030 BKN130 BKN/// 18/13 Q0998
RJCC 230700Z 15016KT 9999 FEW030 BKN140 BKN/// 19/13 Q0999 RMK 1CU030 6AC140 A2951
RJCC 230630Z 15015KT 9999 FEW030 BKN150 BKN/// 20/13 Q0999
RJCC 230600Z 14017KT 9999 FEW030 BKN150 BKN/// 21/14 Q0999
RJCC 230530Z 14017KT 9999 FEW030 BKN/// 21/14 Q0999
RJCC 230500Z 14016KT 9999 FEW030 SCT150 BKN/// 20/13 Q1000 WS R19L
RJCC 230430Z 16019KT 9999 FEW025 BKN150 BKN/// 19/13 Q1000
RJCC 230400Z 17018KT 9999 FEW025 BKN140 BKN/// 20/14 Q1000
RJCC 230330Z 16020KT 9999 FEW025 SCT130 BKN/// 21/15 Q1000
RJCC 230300Z 17020KT 9999 FEW025 BKN120 20/15 Q1000 RMK 1CU025 6AC120 A2954
RJCC 230230Z 16018KT 9999 FEW025 BKN120 BKN160 20/14 Q1000 RMK 1CU025 5AC120 6AC160 A2955
RJCC 230200Z 16017KT 9999 FEW030 BKN160 20/14 Q1001 RMK 1CU030 6AC160 A2957
RJCC 230130Z 15016KT 9999 FEW030 BKN150 19/13 Q1001 RMK 1CU030 6AC150 A2957
RJCC 230100Z 16016KT 9999 FEW020 BKN130 19/14 Q1001 RMK 1CU020 6AC130 A2958
RJCC 230030Z 16016KT 9999 FEW030 BKN160 20/13 Q1001 RMK 1CU030 5AC160 A2958
RJCC 230000Z 15014KT 9999 FEW030 SCT140 21/13 Q1001 RMK 1CU030 3AC140 A2958
RJCC 222330Z 15016KT 9999 FEW030 SCT120 19/13 Q1002 RMK 1CU030 3AC120 A2959
RJCC 222300Z 16017KT 9999 FEW015 SCT120 18/13 Q1002 RMK 1ST015 4AC120 A2961
RJCC 222230Z 15016KT 9999 FEW015 SCT120 18/13 Q1002 RMK 1ST015 3AC120 A2961
RJCC 222200Z 14014KT 9999 FEW015 17/13 Q1002 RMK 1ST015 A2960
RJCC 222130Z 14014KT 9999 FEW010 16/13 Q1002 RMK 1ST010 A2960
RJCC 222100Z 14012KT 9999 FEW010 15/13 Q1002 RMK 1ST010 A2959
RJCC 222030Z 14012KT 9999 FEW010 SCT/// 14/13 Q1002
RJCC 222000Z 14010KT 9999 FEW010 SCT100 BKN/// 13/12 Q1002
RJCC 221930Z 18008KT 9999 FEW010 SCT100 BKN/// 12/12 Q1002
RJCC 221900Z 15006KT 9999 FEW050 BKN100 12/11 Q1002 RMK 1CU050 5AC100 A2959
RJCC 221830Z 15006KT 9999 FEW050 12/11 Q1001 RMK 1CU050 A2958
RJCC 221800Z 15006KT 9999 FEW050 SCT100 13/12 Q1001 RMK 1CU050 3AC100 A2959
RJCC 221730Z 11006KT 9999 FEW050 SCT/// 12/12 Q1002
RJCC 221700Z 13006KT 9999 FEW015 12/12 Q1002 RMK 1ST015 A2960
RJCC 221630Z 13006KT 9999 FEW015 12/12 Q1002 RMK 1ST015 A2961
RJCC 221600Z 13006KT 9999 FEW015 12/11 Q1002 RMK 1ST015 A2960
RJCC 221530Z 16006KT 9999 FEW015 12/12 Q1002 RMK 1ST015 A2961
RJCC 221500Z 11006KT 9999 FEW015 13/12 Q1002 RMK 1ST015 A2961
RJCC 221430Z 15003KT 9999 FEW015 12/12 Q1002 RMK 1ST015 A2961
RJCC 221400Z 10005KT 9999 FEW015 13/12 Q1002 RMK 1ST015 A2961
RJCC 221330Z 09004KT 9999 FEW015 13/12 Q1002 RMK 1ST015 A2961
RJCC 221300Z 10006KT 9999 FEW015 14/13 Q1002 RMK 1ST015 A2960
RJCC 221230Z 13004KT 070V160 9999 FEW015 14/12 Q1002 RMK 1ST015 A2959
RJCC 221200Z 18003KT 150V230 9999 FEW015 15/13 Q1002 RMK 1ST015 A2959
RJCC 221130Z 11004KT 090V160 9999 FEW015 15/13 Q1001 RMK 1ST015 A2958
RJCC 221100Z 13005KT 9999 FEW015 15/13 Q1001 RMK 1ST015 A2956
RJCC 221030Z 19008KT 9999 FEW030 18/13 Q1000 RMK 1CU030 A2955
RJCC 221000Z 15006KT 9999 FEW030 18/13 Q1000 RMK 1CU030 A2954
RJCC 220930Z 20008KT 9999 FEW030 SCT060 19/14 Q1000 RMK 1CU030 4CU060 A2954
RJCC 220900Z 19008KT 9999 FEW030 SCT050 20/14 Q1000 RMK 1CU030 3CU050 A2953
RJCC 220830Z 19009KT 9999 FEW030 SCT050 BKN/// 21/14 Q0999
RJCC 220800Z 18010KT 9999 FEW030 SCT050 BKN/// 20/14 Q0999 RMK 1CU030 3CU050 A2952
RJCC 220730Z 22010KT 9999 FEW030 SCT050 BKN/// 21/14 Q0999 RMK 1CU030 4CU050 A2952
RJCC 220700Z 24009KT 210V270 9999 FEW030 SCT050 BKN/// 22/13 Q0999
RJCC 220630Z 24012KT 9999 FEW025 SCT050 BKN080 21/13 Q0999 RMK 1CU025 4CU050 5AC080 A2951
RJCC 220600Z 26011KT 210V290 9999 FEW025 BKN050 BKN080 22/14 Q0999 RMK 1CU025 5CU050 6AC080 A2950
RJCC 220530Z 24012KT 9999 FEW025 BKN080 BKN/// 22/14 Q0999
RJCC 220500Z VRB05KT 9999 FEW020 SCT050 BKN080 21/16 Q0999 RMK 1CU020 3CU050 6AC080 A2951
RJCC 220430Z 20005KT 160V260 9999 FEW015 BKN050 BKN100 20/15 Q0999 RMK 1ST015 5CU050 6AC100 A2952
RJCC 220400Z 19008KT 9999 FEW015 SCT045 BKN100 20/15 Q0999 RMK 1ST015 3CU045 6AC100 A2952
RJCC 220330Z 19009KT 9999 FEW015 BKN050 BKN100 19/14 Q1000 RMK 1ST015 5CU050 7AC100 A2953
RJCC 220300Z 19009KT 9999 -SHRA FEW010 BKN050 BKN090 18/15 Q1000 RMK 1ST010 5CU050 7AC090 A2953
RJCC 220230Z 19011KT 9999 FEW010 SCT050 BKN090 18/14 Q1000 RMK 1ST010 4CU050 7AC090 A2953
RJCC 220200Z 18013KT 9999 FEW010 BKN080 BKN100 18/14 Q1000 RMK 1ST010 5AC080 7AC100 A2953
RJCC 220130Z 17013KT 9999 FEW010 SCT080 BKN100 18/14 Q1000 RMK 1ST010 4AC080 7AC100 A2953
RJCC 220100Z 17012KT 9999 FEW005 SCT080 BKN100 18/15 Q0999 RMK 1ST005 4AC080 7AC100 A2952
RJCC 220030Z 16009KT 9999 FEW005 BKN080 17/14 Q1000 RMK 1ST005 6AC080 A2953
RJCC 220000Z 17009KT 9999 FEW002 BKN070 18/15 Q1000 RMK 1ST002 6AC070 A2953
RJCC 212330Z 17009KT 9999 FEW002 SCT007 BKN070 16/14 Q1000 RMK 1ST002 3ST007 5AC070 A2953
RJCC 212300Z 17010KT 9999 FEW002 SCT007 BKN070 15/14 Q1000 RMK 1ST002 3ST007 5AC070 A2953
RJCC 212230Z 20012KT 8000 FEW002 SCT005 BKN040 16/15 Q1000 RMK 1ST002 4ST005 5CU040 A2953
RJCC 212200Z 18010KT 7000 FEW002 SCT004 BKN035 15/15 Q1000 RMK 1ST002 4ST004 6CU035 A2953
RJCC 212144Z 16008KT 5000 BR FEW002 SCT003 BKN004 14/14 Q1000 RMK 1ST002 4ST003 7ST004 A2954
RJCC 212130Z 16009KT 3200 BR FEW002 SCT003 BKN004 14/13 Q1000 RMK 1ST002 4ST003 7ST004 A2954
RJCC 212112Z 16009KT 2400 BR FEW002 SCT003 BKN005 13/13 Q1000 RMK 1ST002 4ST003 7ST005 A2953
RJCC 212100Z 16009KT 2000 BR FEW001 BKN003 BKN005 13/13 Q1000 RMK 1ST001 5ST003 7ST005 A2953
RJCC 212044Z 16008KT 1600 BCFG BR SCT001 BKN003 13/13 Q1000 RMK 4ST001 7ST003 A2954
RJCC 212037Z 16009KT 1200 R19R/1400VP2000U R19L/1400VP2000U BCFG BR BKN001 13/12 Q1000 RMK 7ST001 A2954
RJCC 212034Z 16009KT 1000 R19R/1200VP2000U R19L/1100VP2000U BCFG BR BKN001 13/12 Q1000 RMK 7ST001 A2953
RJCC 212031Z 16009KT 0800 R19R/1000VP2000U R19L/1100VP2000U FG VV001 13/12 Q1000 RMK A2953
RJCC 212030Z 16009KT 0600 R19R/1000VP2000U R19L/1100VP2000U FG VV001 13/12 Q1000
RJCC 212022Z 15010KT 0300 R19R/0750V1100U R19L/1100U FG VV001 13/12 Q1000 RMK A2953
RJCC 212013Z 15010KT 0200 R19R/0800N R19L/0800U FG VV001 13/12 Q1000 RMK A2953
RJCC 212008Z 15010KT 0200 R19R/0750N R19L/0600V0900N FG VV001 13/12 Q1000 RMK A2953
RJCC 212002Z 16009KT 0200 R19R/0650N R19L/0550V0800N FG VV001 12/12 Q1000 RMK A2953
RJCC 212000Z 16009KT 0200 R19R/0650N R19L/0550V0800N FG VV001 13/12 Q1000
RJCC 211939Z 16007KT 0200 R19R/0450V0600N R19L/0600N FG VV001 12/12 Q1000 RMK A2953
RJCC 211930Z 16006KT 0200 R19R/0650N R19L/0600V0800D FG VV001 12/12 Q1000
RJCC 211923Z 15006KT 0200 R19R/0450V0700N R19L/0550V0800U FG VV001 12/12 Q1000 RMK A2953
RJCC 211919Z 14006KT 0200 R19R/0450V0800D R19L/0550V0800N FG VV001 12/12 Q0999 RMK A2953
RJCC 211910Z 13005KT 0200 R19R/0450V0800U R19L/0550V0800U FG VV001 12/12 Q0999 RMK A2952
RJCC 211900Z 12004KT 0100 R19R/0450N R19L/0550N FG VV001 12/12 Q0999 RMK A2953
RJCC 211842Z 16005KT 0200 R19R/0500N R19L/0550N FG VV001 12/12 Q0999 RMK A2952
RJCC 211832Z 15005KT 0200 R19R/0550N R19L/0550N FG VV001 12/12 Q0999 RMK A2952
RJCC 211830Z 16004KT 0200 R19R/0500N R19L/0550N FG VV001 12/12 Q0999
RJCC 211814Z 17005KT 0200 R19R/0450V0600N R19L/0600N FG VV001 12/12 Q0999 RMK A2952
RJCC 211800Z 17006KT 0200 R19R/0650N R19L/0650N FG VV001 12/12 Q0999 RMK A2952
RJCC 211745Z 16006KT 0200 R19R/0550V0800N R19L/0700N FG VV001 12/12 Q0999 RMK A2952
RJCC 211740Z 17006KT 0200 R19R/0600N R19L/0650N FG VV001 12/12 Q0999 RMK A2952
RJCC 211730Z 16006KT 0200 R19R/0650N R19L/0750N FG VV001 12/12 Q0999
RJCC 211700Z 17008KT 0200 R19R/0750N R19L/0800N FG VV001 12/12 Q0999 RMK A2953
RJCC 211630Z 15006KT 0200 R19R/0800N R19L/0800V1200D FG VV001 12/12 Q0999
RJCC 211600Z 14007KT 100V160 0200 R19R/0800D R19L/0900N FG VV001 12/12 Q0999 RMK A2952
RJCC 211530Z 13007KT 0200 R19R/0600V0800N R19L/0800N FG VV001 12/12 Q0999
RJCC 211500Z 16007KT 0200 R19R/0750N R01R/0800N FG VV001 12/12 Q0999
RJCC 211430Z 16009KT 0200 R01L/0800N R01R/0900N FG VV001 12/12 Q1000
RJCC 211402Z 16010KT 0200 R01L/0550N R19L/0650N FG VV001 13/12 Q0999 RMK A2952
RJCC 211400Z 16010KT 0200 R01L/0550V0750N R19L/0550V0750N FG VV001 13/12 Q0999 RMK A2952
RJCC 211349Z 17010KT 0200 R19R/0650V0900D R19L/0800D FG VV001 12/12 Q1000 RMK A2953
RJCC 211339Z 16009KT 0200 R19R/0900V1100D R19L/0900V1200D FG VV001 12/12 Q1000 RMK A2953
RJCC 211330Z 15008KT 0300 R19R/1100N R19L/1200N FG VV001 12/12 Q1000
RJCC 211310Z 15010KT 0300 R19R/1100D R19L/1300N FG VV001 12/12 Q0999 RMK A2953
RJCC 211306Z 15010KT 0400 R19R/1200N R19L/1300N FG VV001 12/12 Q0999 RMK A2953
RJCC 211304Z 15011KT 0400 R19R/1200N R19L/1400N FG VV001 12/12 Q0999 RMK A2953
RJCC 211301Z 15010KT 0400 R19R/1200U R19L/1300U FG VV001 12/12 Q0999 RMK A2953
RJCC 211300Z 15010KT 0400 R19R/1100U R19L/1300U FG VV001 12/12 Q0999 RMK A2953
RJCC 211244Z 17010KT 0400 R19R/1100D R19L/1000V1500D FG VV001 12/12 Q1000 RMK A2953
RJCC 211240Z 17009KT 0400 R19R/1300D R19L/1000V1700D FG VV001 12/12 Q1000 RMK A2953
RJCC 211239Z 17009KT 0500 R19R/1100V1600D R19L/1100V1800D FG VV001 12/12 Q1000 RMK A2953
RJCC 211237Z 17009KT 0500 R19R/1400D R19L/1300V1800D FG VV001 12/12 Q1000 RMK A2953
RJCC 211232Z 16009KT 0600 R19R/1500N R19L/1700D FG VV001 12/12 Q1000 RMK A2953
RJCC 211230Z 16010KT 0600 R19R/1500N R19L/1800D FG VV001 12/12 Q1000
RJCC 211226Z 15011KT 0500 R19R/1600N R19L/1900N FG VV001 12/12 Q1000 RMK A2953
RJCC 211220Z 15012KT 0500 R19R/1400U R19L/1800U FG VV001 12/12 Q1000 RMK A2953
RJCC 211216Z 15012KT 0500 R19R/1300U R19L/1600U FG VV001 12/12 Q1000 RMK A2953
RJCC 211210Z 16010KT 0500 R19R/1100V1800D R19L/1400VP2000D FG VV001 12/12 Q0999 RMK A2953
RJCC 211208Z 16009KT 0500 R19R/1300V1900D R19L/1400VP2000D FG VV001 12/12 Q0999 RMK A2953
RJCC 211206Z 16008KT 0500 R19R/1500VP2000D R19L/1400VP2000D FG VV001 12/12 Q0999 RMK A2953
RJCC 211200Z 16008KT 0500 R19R/2000D R19L/2000N FG VV001 12/12 Q1000 RMK A2953
RJCC 211130Z 14008KT 0900 R19R/P2000N R19L/P2000N FG VV001 12/12 Q0999
RJCC 211113Z 15011KT 1200 R19R/2000N R19L/2000N BR BKN001 BKN002 12/12 Q0999 RMK 5ST001 7ST002 A2952
RJCC 211109Z 15011KT 1400 R19R/2000N R19L/P2000N BR FEW001 BKN002 12/12 Q0999 RMK 1ST001 7ST002 A2952
RJCC 211100Z 16011KT 1800 -DZ BR FEW001 BKN002 12/12 Q0999 RMK 1ST001 7ST002 A2952
RJCC 211030Z 15011KT 2300 -DZ BR BKN002 BKN003 12/12 Q0999 RMK 5ST002 7ST003 A2952
RJCC 211000Z 16010KT 2300 -DZ BR BKN002 BKN003 12/12 Q0999 RMK 5ST002 7ST003 A2952
RJCC 210947Z 14009KT 3100 -SHRA BR BKN002 BKN003 12/12 Q0999 RMK 5ST002 7ST003 A2952
RJCC 210930Z 15011KT 3500 -SHRA BR FEW002 BKN003 13/12 Q0999 RMK 1ST002 7ST003 A2952
RJCC 210921Z 16012KT 3200 -SHRA BR FEW002 BKN003 13/12 Q0999 RMK 1ST002 7ST003 A2952
RJCC 210900Z 16009KT 3000 R19R/P2000N R19L/P2000N -TSRA BR FEW002 BKN003 13/13 Q0999 RMK 1ST002 7ST003 A2952 FBL TS 10KM E MOV NE
RJCC 210836Z 18011KT 2300 +TSRA BR FEW002 BKN003 13/12 Q0999 RMK 1ST002 7ST003 A2952 MOD TS OHD MOV NE
RJCC 210830Z 18011KT 3500 -TSRA BR FEW002 BKN003 13/12 Q0999 RMK 1ST002 7ST003 A2952 FBL TS 20KM SW MOV NE
RJCC 210800Z 16010KT 3500 -TSRA BR FEW002 BKN003 13/13 Q0999 RMK 1ST002 7ST003 A2951 FBL TS 20KM NE MOV NE
RJCC 210745Z 18012KT 1600 R19R/1500VP2000N R19L/1500VP2000D TSRA BR FEW002 BKN003 13/12 Q0999 RMK 1ST002 7ST003 A2952 FBL TS OHD MOV NE
RJCC 210739Z 19013KT 1500 R19R/P2000N R19L/P2000N +TSRA BR FEW002 BKN003 13/12 Q1000 RMK 1ST002 7ST003 A2953 FBL TS OHD MOV NE
RJCC 210735Z 20013KT 1500 R19R/P2000N R19L/P2000N TSRA BR FEW002 BKN003 13/13 Q1000 RMK 1ST002 7ST003 A2953 FBL TS OHD MOV NE